sensor_id;sensor_type;location;lat;lon;timestamp;P1;durP1;ratioP1;P2;durP2;ratioP2
73919;SDS011;62266;53.348;-1.496;2023-05-19T00:07:34;6.47;;;4.40;;
73919;SDS011;62266;53.348;-1.496;2023-05-19T00:10:20;10.65;;;4.68;;
73919;SDS011;62266;53.348;-1.496;2023-05-19T00:13:05;10.30;;;4.65;;
73919;SDS011;62266;53.348;-1.496;2023-05-19T00:15:49;7.60;;;4.97;;
73919;SDS011;62266;53.348;-1.496;2023-05-19T00:18:37;10.48;;;4.40;;
73919;SDS011;62266;53.348;-1.496;2023-05-19T00:21:21;9.40;;;4.70;;
73919;SDS011;62266;53.348;-1.496;2023-05-19T00:44:16;8.77;;;4.90;;
73919;SDS011;62266;53.348;-1.496;2023-05-19T00:47:00;11.13;;;4.95;;
73919;SDS011;62266;53.348;-1.496;2023-05-19T00:49:44;8.33;;;5.03;;
73919;SDS011;62266;53.348;-1.496;2023-05-19T00:52:28;8.65;;;4.35;;
73919;SDS011;62266;53.348;-1.496;2023-05-19T00:55:13;8.93;;;4.40;;
73919;SDS011;62266;53.348;-1.496;2023-05-19T00:57:58;6.22;;;4.40;;
73919;SDS011;62266;53.348;-1.496;2023-05-19T01:00:42;6.70;;;4.00;;
73919;SDS011;62266;53.348;-1.496;2023-05-19T01:03:27;6.20;;;4.30;;
73919;SDS011;62266;53.348;-1.496;2023-05-19T01:06:13;6.18;;;3.60;;
73919;SDS011;62266;53.348;-1.496;2023-05-19T01:08:57;6.68;;;3.85;;
73919;SDS011;62266;53.348;-1.496;2023-05-19T01:11:41;8.10;;;4.28;;
73919;SDS011;62266;53.348;-1.496;2023-05-19T01:14:25;7.40;;;4.30;;
73919;SDS011;62266;53.348;-1.496;2023-05-19T01:23:16;8.38;;;3.92;;
73919;SDS011;62266;53.348;-1.496;2023-05-19T01:29:20;6.05;;;3.67;;
73919;SDS011;62266;53.348;-1.496;2023-05-19T01:32:06;10.00;;;4.00;;
73919;SDS011;62266;53.348;-1.496;2023-05-19T01:34:55;5.72;;;3.65;;
73919;SDS011;62266;53.348;-1.496;2023-05-19T01:37:40;8.80;;;3.70;;
73919;SDS011;62266;53.348;-1.496;2023-05-19T01:40:24;6.65;;;3.60;;
73919;SDS011;62266;53.348;-1.496;2023-05-19T01:43:11;10.18;;;4.75;;
73919;SDS011;62266;53.348;-1.496;2023-05-19T01:45:58;7.87;;;4.33;;
73919;SDS011;62266;53.348;-1.496;2023-05-19T01:48:43;8.98;;;4.07;;
73919;SDS011;62266;53.348;-1.496;2023-05-19T01:51:27;7.82;;;3.70;;
73919;SDS011;62266;53.348;-1.496;2023-05-19T01:54:12;6.95;;;4.00;;
73919;SDS011;62266;53.348;-1.496;2023-05-19T01:57:03;9.13;;;4.10;;
73919;SDS011;62266;53.348;-1.496;2023-05-19T02:00:02;7.73;;;4.30;;
73919;SDS011;62266;53.348;-1.496;2023-05-19T02:05:38;7.38;;;4.35;;
73919;SDS011;62266;53.348;-1.496;2023-05-19T02:08:41;6.80;;;4.53;;
73919;SDS011;62266;53.348;-1.496;2023-05-19T02:14:19;8.23;;;3.80;;
73919;SDS011;62266;53.348;-1.496;2023-05-19T02:17:04;5.85;;;3.72;;
73919;SDS011;62266;53.348;-1.496;2023-05-19T02:19:49;7.30;;;3.92;;
73919;SDS011;62266;53.348;-1.496;2023-05-19T02:22:33;7.68;;;3.78;;
73919;SDS011;62266;53.348;-1.496;2023-05-19T02:25:18;6.75;;;3.92;;
73919;SDS011;62266;53.348;-1.496;2023-05-19T02:28:02;5.90;;;3.60;;
73919;SDS011;62266;53.348;-1.496;2023-05-19T02:30:46;7.75;;;3.60;;
73919;SDS011;62266;53.348;-1.496;2023-05-19T02:33:30;6.55;;;3.70;;
73919;SDS011;62266;53.348;-1.496;2023-05-19T02:36:14;4.93;;;3.10;;
73919;SDS011;62266;53.348;-1.496;2023-05-19T02:38:58;5.60;;;3.47;;
73919;SDS011;62266;53.348;-1.496;2023-05-19T02:41:43;7.10;;;3.87;;
73919;SDS011;62266;53.348;-1.496;2023-05-19T02:44:28;6.40;;;3.70;;
73919;SDS011;62266;53.348;-1.496;2023-05-19T02:47:12;6.70;;;3.72;;
73919;SDS011;62266;53.348;-1.496;2023-05-19T02:49:59;7.35;;;3.83;;
73919;SDS011;62266;53.348;-1.496;2023-05-19T02:52:43;7.57;;;4.00;;
73919;SDS011;62266;53.348;-1.496;2023-05-19T02:55:27;5.93;;;3.97;;
73919;SDS011;62266;53.348;-1.496;2023-05-19T02:58:12;8.85;;;3.90;;
73919;SDS011;62266;53.348;-1.496;2023-05-19T03:00:56;8.77;;;3.92;;
73919;SDS011;62266;53.348;-1.496;2023-05-19T03:03:40;6.35;;;3.50;;
73919;SDS011;62266;53.348;-1.496;2023-05-19T03:06:24;8.35;;;3.85;;
73919;SDS011;62266;53.348;-1.496;2023-05-19T03:09:08;6.57;;;3.70;;
73919;SDS011;62266;53.348;-1.496;2023-05-19T03:11:53;9.13;;;4.18;;
73919;SDS011;62266;53.348;-1.496;2023-05-19T03:14:37;5.60;;;3.80;;
73919;SDS011;62266;53.348;-1.496;2023-05-19T03:17:21;7.90;;;3.45;;
73919;SDS011;62266;53.348;-1.496;2023-05-19T03:20:05;7.80;;;3.80;;
73919;SDS011;62266;53.348;-1.496;2023-05-19T03:22:50;7.33;;;3.73;;
73919;SDS011;62266;53.348;-1.496;2023-05-19T03:25:34;8.82;;;4.00;;
73919;SDS011;62266;53.348;-1.496;2023-05-19T03:28:18;12.13;;;4.20;;
73919;SDS011;62266;53.348;-1.496;2023-05-19T03:31:02;6.93;;;3.60;;
73919;SDS011;62266;53.348;-1.496;2023-05-19T03:33:47;6.57;;;3.95;;
73919;SDS011;62266;53.348;-1.496;2023-05-19T03:36:31;7.40;;;3.80;;
73919;SDS011;62266;53.348;-1.496;2023-05-19T03:39:15;7.20;;;3.70;;
73919;SDS011;62266;53.348;-1.496;2023-05-19T03:41:59;8.60;;;4.20;;
73919;SDS011;62266;53.348;-1.496;2023-05-19T03:44:43;6.45;;;3.90;;
73919;SDS011;62266;53.348;-1.496;2023-05-19T03:47:28;8.18;;;3.95;;
73919;SDS011;62266;53.348;-1.496;2023-05-19T03:50:14;5.03;;;3.50;;
73919;SDS011;62266;53.348;-1.496;2023-05-19T03:52:58;6.38;;;3.78;;
73919;SDS011;62266;53.348;-1.496;2023-05-19T03:55:42;6.28;;;3.58;;
73919;SDS011;62266;53.348;-1.496;2023-05-19T03:58:27;5.72;;;3.40;;
73919;SDS011;62266;53.348;-1.496;2023-05-19T04:01:12;8.18;;;3.63;;
73919;SDS011;62266;53.348;-1.496;2023-05-19T04:03:56;5.63;;;3.90;;
73919;SDS011;62266;53.348;-1.496;2023-05-19T04:06:40;5.85;;;3.13;;
73919;SDS011;62266;53.348;-1.496;2023-05-19T04:09:24;6.47;;;3.55;;
73919;SDS011;62266;53.348;-1.496;2023-05-19T04:12:08;5.72;;;3.33;;
73919;SDS011;62266;53.348;-1.496;2023-05-19T04:14:52;4.70;;;3.22;;
73919;SDS011;62266;53.348;-1.496;2023-05-19T04:17:36;7.93;;;3.67;;
73919;SDS011;62266;53.348;-1.496;2023-05-19T04:20:21;7.00;;;3.60;;
73919;SDS011;62266;53.348;-1.496;2023-05-19T04:23:05;5.25;;;3.45;;
73919;SDS011;62266;53.348;-1.496;2023-05-19T04:25:48;7.07;;;3.72;;
73919;SDS011;62266;53.348;-1.496;2023-05-19T04:28:32;8.65;;;4.40;;
73919;SDS011;62266;53.348;-1.496;2023-05-19T04:31:19;7.07;;;4.60;;
73919;SDS011;62266;53.348;-1.496;2023-05-19T04:34:04;7.88;;;3.53;;
73919;SDS011;62266;53.348;-1.496;2023-05-19T04:36:48;5.75;;;3.60;;
73919;SDS011;62266;53.348;-1.496;2023-05-19T04:39:32;8.35;;;4.03;;
73919;SDS011;62266;53.348;-1.496;2023-05-19T04:42:16;7.00;;;4.00;;
73919;SDS011;62266;53.348;-1.496;2023-05-19T04:45:01;8.07;;;4.43;;
73919;SDS011;62266;53.348;-1.496;2023-05-19T04:47:46;6.50;;;3.80;;
73919;SDS011;62266;53.348;-1.496;2023-05-19T04:50:30;6.63;;;3.60;;
73919;SDS011;62266;53.348;-1.496;2023-05-19T04:53:15;7.65;;;3.67;;
73919;SDS011;62266;53.348;-1.496;2023-05-19T04:55:59;6.03;;;3.63;;
73919;SDS011;62266;53.348;-1.496;2023-05-19T04:58:44;6.93;;;4.07;;
73919;SDS011;62266;53.348;-1.496;2023-05-19T05:01:28;9.20;;;4.30;;
73919;SDS011;62266;53.348;-1.496;2023-05-19T05:04:13;9.63;;;5.85;;
73919;SDS011;62266;53.348;-1.496;2023-05-19T05:06:57;7.75;;;4.00;;
73919;SDS011;62266;53.348;-1.496;2023-05-19T05:09:41;6.60;;;3.80;;
73919;SDS011;62266;53.348;-1.496;2023-05-19T05:12:25;6.80;;;3.60;;
73919;SDS011;62266;53.348;-1.496;2023-05-19T05:15:10;7.22;;;3.53;;
73919;SDS011;62266;53.348;-1.496;2023-05-19T05:17:54;7.95;;;3.63;;
73919;SDS011;62266;53.348;-1.496;2023-05-19T05:20:40;6.63;;;3.88;;
73919;SDS011;62266;53.348;-1.496;2023-05-19T05:23:28;5.75;;;3.92;;
73919;SDS011;62266;53.348;-1.496;2023-05-19T05:26:16;6.27;;;3.30;;
73919;SDS011;62266;53.348;-1.496;2023-05-19T05:29:11;7.22;;;3.20;;
73919;SDS011;62266;53.348;-1.496;2023-05-19T05:31:55;5.80;;;3.47;;
73919;SDS011;62266;53.348;-1.496;2023-05-19T05:34:39;6.28;;;3.95;;
73919;SDS011;62266;53.348;-1.496;2023-05-19T05:37:24;6.53;;;3.50;;
73919;SDS011;62266;53.348;-1.496;2023-05-19T05:40:08;7.13;;;3.43;;
73919;SDS011;62266;53.348;-1.496;2023-05-19T05:42:53;7.70;;;4.00;;
73919;SDS011;62266;53.348;-1.496;2023-05-19T05:45:41;6.32;;;3.58;;
73919;SDS011;62266;53.348;-1.496;2023-05-19T05:48:25;5.68;;;3.70;;
73919;SDS011;62266;53.348;-1.496;2023-05-19T05:51:10;8.50;;;3.67;;
73919;SDS011;62266;53.348;-1.496;2023-05-19T05:53:54;5.27;;;3.13;;
73919;SDS011;62266;53.348;-1.496;2023-05-19T05:56:39;4.97;;;3.20;;
73919;SDS011;62266;53.348;-1.496;2023-05-19T05:59:24;6.78;;;3.67;;
73919;SDS011;62266;53.348;-1.496;2023-05-19T06:02:08;5.45;;;3.63;;
73919;SDS011;62266;53.348;-1.496;2023-05-19T06:04:52;7.97;;;3.90;;
73919;SDS011;62266;53.348;-1.496;2023-05-19T06:07:37;6.60;;;3.60;;
73919;SDS011;62266;53.348;-1.496;2023-05-19T06:10:21;9.48;;;4.22;;
73919;SDS011;62266;53.348;-1.496;2023-05-19T06:13:06;7.90;;;3.70;;
73919;SDS011;62266;53.348;-1.496;2023-05-19T06:15:50;7.72;;;3.80;;
73919;SDS011;62266;53.348;-1.496;2023-05-19T06:18:34;11.63;;;4.28;;
73919;SDS011;62266;53.348;-1.496;2023-05-19T06:21:18;6.00;;;3.87;;
73919;SDS011;62266;53.348;-1.496;2023-05-19T06:24:03;7.72;;;3.90;;
73919;SDS011;62266;53.348;-1.496;2023-05-19T06:26:47;5.60;;;3.90;;
73919;SDS011;62266;53.348;-1.496;2023-05-19T06:29:31;7.53;;;3.13;;
73919;SDS011;62266;53.348;-1.496;2023-05-19T06:32:15;7.32;;;3.03;;
73919;SDS011;62266;53.348;-1.496;2023-05-19T06:34:59;6.67;;;3.17;;
73919;SDS011;62266;53.348;-1.496;2023-05-19T06:37:43;6.18;;;3.08;;
73919;SDS011;62266;53.348;-1.496;2023-05-19T06:40:27;6.03;;;3.10;;
73919;SDS011;62266;53.348;-1.496;2023-05-19T06:43:11;6.53;;;3.10;;
73919;SDS011;62266;53.348;-1.496;2023-05-19T06:45:55;7.03;;;3.00;;
73919;SDS011;62266;53.348;-1.496;2023-05-19T06:48:39;5.30;;;2.73;;
73919;SDS011;62266;53.348;-1.496;2023-05-19T06:51:23;5.50;;;3.00;;
73919;SDS011;62266;53.348;-1.496;2023-05-19T06:54:07;4.38;;;2.00;;
73919;SDS011;62266;53.348;-1.496;2023-05-19T06:56:53;3.35;;;2.30;;
73919;SDS011;62266;53.348;-1.496;2023-05-19T06:59:37;4.50;;;2.35;;
73919;SDS011;62266;53.348;-1.496;2023-05-19T07:02:23;4.43;;;2.63;;
73919;SDS011;62266;53.348;-1.496;2023-05-19T07:05:07;5.28;;;2.60;;
73919;SDS011;62266;53.348;-1.496;2023-05-19T07:07:52;3.80;;;2.17;;
73919;SDS011;62266;53.348;-1.496;2023-05-19T07:10:36;5.70;;;2.45;;
73919;SDS011;62266;53.348;-1.496;2023-05-19T07:13:21;4.85;;;2.15;;
73919;SDS011;62266;53.348;-1.496;2023-05-19T07:16:05;3.00;;;1.80;;
73919;SDS011;62266;53.348;-1.496;2023-05-19T07:18:49;2.83;;;2.08;;
73919;SDS011;62266;53.348;-1.496;2023-05-19T07:21:33;4.20;;;2.03;;
73919;SDS011;62266;53.348;-1.496;2023-05-19T07:24:17;4.30;;;1.98;;
73919;SDS011;62266;53.348;-1.496;2023-05-19T07:27:04;2.88;;;1.85;;
73919;SDS011;62266;53.348;-1.496;2023-05-19T07:29:48;4.20;;;1.80;;
73919;SDS011;62266;53.348;-1.496;2023-05-19T07:32:32;5.55;;;2.03;;
73919;SDS011;62266;53.348;-1.496;2023-05-19T07:35:16;3.55;;;2.20;;
73919;SDS011;62266;53.348;-1.496;2023-05-19T07:38:00;4.53;;;2.22;;
73919;SDS011;62266;53.348;-1.496;2023-05-19T07:40:45;6.47;;;2.63;;
73919;SDS011;62266;53.348;-1.496;2023-05-19T07:43:29;7.07;;;2.67;;
73919;SDS011;62266;53.348;-1.496;2023-05-19T07:46:13;3.38;;;2.08;;
73919;SDS011;62266;53.348;-1.496;2023-05-19T07:48:57;4.35;;;2.10;;
73919;SDS011;62266;53.348;-1.496;2023-05-19T07:51:41;5.40;;;2.20;;
73919;SDS011;62266;53.348;-1.496;2023-05-19T07:54:25;3.70;;;1.83;;
73919;SDS011;62266;53.348;-1.496;2023-05-19T07:57:08;4.07;;;1.90;;
73919;SDS011;62266;53.348;-1.496;2023-05-19T07:59:52;3.30;;;2.20;;
73919;SDS011;62266;53.348;-1.496;2023-05-19T08:02:36;2.95;;;2.10;;
73919;SDS011;62266;53.348;-1.496;2023-05-19T08:05:21;4.78;;;2.08;;
73919;SDS011;62266;53.348;-1.496;2023-05-19T08:08:05;4.63;;;2.42;;
73919;SDS011;62266;53.348;-1.496;2023-05-19T08:10:49;3.60;;;1.80;;
73919;SDS011;62266;53.348;-1.496;2023-05-19T08:13:33;3.22;;;2.40;;
73919;SDS011;62266;53.348;-1.496;2023-05-19T08:16:18;4.57;;;2.75;;
73919;SDS011;62266;53.348;-1.496;2023-05-19T08:19:02;5.05;;;2.40;;
73919;SDS011;62266;53.348;-1.496;2023-05-19T08:21:49;5.18;;;2.35;;
73919;SDS011;62266;53.348;-1.496;2023-05-19T08:24:33;4.33;;;2.20;;
73919;SDS011;62266;53.348;-1.496;2023-05-19T08:27:20;4.03;;;2.13;;
73919;SDS011;62266;53.348;-1.496;2023-05-19T08:30:04;3.95;;;2.45;;
73919;SDS011;62266;53.348;-1.496;2023-05-19T08:32:49;3.45;;;2.40;;
73919;SDS011;62266;53.348;-1.496;2023-05-19T08:35:33;5.53;;;2.80;;
73919;SDS011;62266;53.348;-1.496;2023-05-19T08:38:18;2.93;;;2.43;;
73919;SDS011;62266;53.348;-1.496;2023-05-19T08:41:05;3.97;;;2.70;;
73919;SDS011;62266;53.348;-1.496;2023-05-19T08:43:50;6.38;;;2.70;;
73919;SDS011;62266;53.348;-1.496;2023-05-19T08:46:34;3.55;;;2.50;;
73919;SDS011;62266;53.348;-1.496;2023-05-19T08:49:22;5.20;;;2.72;;
73919;SDS011;62266;53.348;-1.496;2023-05-19T08:55:18;5.80;;;2.65;;
73919;SDS011;62266;53.348;-1.496;2023-05-19T08:58:08;5.63;;;3.13;;
73919;SDS011;62266;53.348;-1.496;2023-05-19T09:00:52;5.55;;;3.10;;
73919;SDS011;62266;53.348;-1.496;2023-05-19T09:03:37;10.48;;;3.60;;
73919;SDS011;62266;53.348;-1.496;2023-05-19T09:06:22;8.73;;;3.53;;
73919;SDS011;62266;53.348;-1.496;2023-05-19T09:09:07;5.00;;;3.00;;
73919;SDS011;62266;53.348;-1.496;2023-05-19T09:11:54;8.75;;;3.40;;
73919;SDS011;62266;53.348;-1.496;2023-05-19T09:14:38;6.25;;;3.10;;
73919;SDS011;62266;53.348;-1.496;2023-05-19T09:17:23;4.55;;;3.47;;
73919;SDS011;62266;53.348;-1.496;2023-05-19T09:20:07;7.40;;;3.37;;
73919;SDS011;62266;53.348;-1.496;2023-05-19T09:22:53;4.70;;;3.20;;
73919;SDS011;62266;53.348;-1.496;2023-05-19T09:25:45;4.95;;;3.10;;
73919;SDS011;62266;53.348;-1.496;2023-05-19T09:28:30;5.45;;;3.13;;
73919;SDS011;62266;53.348;-1.496;2023-05-19T09:31:15;7.75;;;2.88;;
73919;SDS011;62266;53.348;-1.496;2023-05-19T09:33:59;4.80;;;2.93;;
73919;SDS011;62266;53.348;-1.496;2023-05-19T09:36:45;4.05;;;2.80;;
73919;SDS011;62266;53.348;-1.496;2023-05-19T09:39:32;7.47;;;3.33;;
73919;SDS011;62266;53.348;-1.496;2023-05-19T09:42:23;4.57;;;2.70;;
73919;SDS011;62266;53.348;-1.496;2023-05-19T09:45:12;5.85;;;3.33;;
73919;SDS011;62266;53.348;-1.496;2023-05-19T09:47:56;5.57;;;3.10;;
73919;SDS011;62266;53.348;-1.496;2023-05-19T09:50:47;5.05;;;2.95;;
73919;SDS011;62266;53.348;-1.496;2023-05-19T09:53:34;6.50;;;3.05;;
73919;SDS011;62266;53.348;-1.496;2023-05-19T09:56:19;6.60;;;3.00;;
73919;SDS011;62266;53.348;-1.496;2023-05-19T09:59:06;6.30;;;3.08;;
73919;SDS011;62266;53.348;-1.496;2023-05-19T10:01:53;6.17;;;3.10;;
73919;SDS011;62266;53.348;-1.496;2023-05-19T10:04:42;5.75;;;3.42;;
73919;SDS011;62266;53.348;-1.496;2023-05-19T10:07:27;4.68;;;3.00;;
73919;SDS011;62266;53.348;-1.496;2023-05-19T10:10:12;8.52;;;3.35;;
73919;SDS011;62266;53.348;-1.496;2023-05-19T10:12:56;5.72;;;3.17;;
73919;SDS011;62266;53.348;-1.496;2023-05-19T10:15:41;5.30;;;3.03;;
73919;SDS011;62266;53.348;-1.496;2023-05-19T10:18:26;4.28;;;2.80;;
73919;SDS011;62266;53.348;-1.496;2023-05-19T10:21:11;4.82;;;2.80;;
73919;SDS011;62266;53.348;-1.496;2023-05-19T10:23:56;5.40;;;3.20;;
73919;SDS011;62266;53.348;-1.496;2023-05-19T10:26:43;5.47;;;2.97;;
73919;SDS011;62266;53.348;-1.496;2023-05-19T10:29:30;8.77;;;3.80;;
73919;SDS011;62266;53.348;-1.496;2023-05-19T10:32:18;5.80;;;3.30;;
73919;SDS011;62266;53.348;-1.496;2023-05-19T10:46:46;5.55;;;3.40;;
73919;SDS011;62266;53.348;-1.496;2023-05-19T10:49:32;9.02;;;3.70;;
73919;SDS011;62266;53.348;-1.496;2023-05-19T10:52:18;6.15;;;3.38;;
73919;SDS011;62266;53.348;-1.496;2023-05-19T10:55:09;6.78;;;3.80;;
73919;SDS011;62266;53.348;-1.496;2023-05-19T10:58:00;7.10;;;3.87;;
73919;SDS011;62266;53.348;-1.496;2023-05-19T11:00:44;5.65;;;3.97;;
73919;SDS011;62266;53.348;-1.496;2023-05-19T11:03:28;7.50;;;4.05;;
73919;SDS011;62266;53.348;-1.496;2023-05-19T11:09:13;6.95;;;3.92;;
73919;SDS011;62266;53.348;-1.496;2023-05-19T11:12:00;6.07;;;3.90;;
73919;SDS011;62266;53.348;-1.496;2023-05-19T11:14:46;7.53;;;3.95;;
73919;SDS011;62266;53.348;-1.496;2023-05-19T11:17:30;5.43;;;3.78;;
73919;SDS011;62266;53.348;-1.496;2023-05-19T11:20:24;7.18;;;4.00;;
73919;SDS011;62266;53.348;-1.496;2023-05-19T11:23:13;6.93;;;3.70;;
73919;SDS011;62266;53.348;-1.496;2023-05-19T11:26:00;15.03;;;4.13;;
73919;SDS011;62266;53.348;-1.496;2023-05-19T11:28:48;4.97;;;3.40;;
73919;SDS011;62266;53.348;-1.496;2023-05-19T11:31:34;7.00;;;3.47;;
73919;SDS011;62266;53.348;-1.496;2023-05-19T11:34:19;5.72;;;3.38;;
73919;SDS011;62266;53.348;-1.496;2023-05-19T11:37:03;7.72;;;3.50;;
73919;SDS011;62266;53.348;-1.496;2023-05-19T11:39:49;5.43;;;3.23;;
73919;SDS011;62266;53.348;-1.496;2023-05-19T11:42:35;5.65;;;3.10;;
73919;SDS011;62266;53.348;-1.496;2023-05-19T11:45:27;4.22;;;2.72;;
73919;SDS011;62266;53.348;-1.496;2023-05-19T11:48:20;8.23;;;3.83;;
73919;SDS011;62266;53.348;-1.496;2023-05-19T11:51:05;6.00;;;3.60;;
73919;SDS011;62266;53.348;-1.496;2023-05-19T11:53:49;6.23;;;3.70;;
73919;SDS011;62266;53.348;-1.496;2023-05-19T11:56:36;6.90;;;3.45;;
73919;SDS011;62266;53.348;-1.496;2023-05-19T11:59:32;6.10;;;3.60;;
73919;SDS011;62266;53.348;-1.496;2023-05-19T12:02:18;7.00;;;3.63;;
73919;SDS011;62266;53.348;-1.496;2023-05-19T12:05:04;6.88;;;4.10;;
73919;SDS011;62266;53.348;-1.496;2023-05-19T12:07:59;8.20;;;4.20;;
73919;SDS011;62266;53.348;-1.496;2023-05-19T12:10:44;8.50;;;3.83;;
73919;SDS011;62266;53.348;-1.496;2023-05-19T12:13:31;6.70;;;3.92;;
73919;SDS011;62266;53.348;-1.496;2023-05-19T12:16:18;7.40;;;4.13;;
73919;SDS011;62266;53.348;-1.496;2023-05-19T12:19:06;7.90;;;4.28;;
73919;SDS011;62266;53.348;-1.496;2023-05-19T12:21:51;6.63;;;4.43;;
73919;SDS011;62266;53.348;-1.496;2023-05-19T12:24:36;8.70;;;4.55;;
73919;SDS011;62266;53.348;-1.496;2023-05-19T12:27:23;10.40;;;4.88;;
73919;SDS011;62266;53.348;-1.496;2023-05-19T12:30:12;10.68;;;5.07;;
73919;SDS011;62266;53.348;-1.496;2023-05-19T12:32:56;10.02;;;5.32;;
73919;SDS011;62266;53.348;-1.496;2023-05-19T12:35:40;7.83;;;4.57;;
73919;SDS011;62266;53.348;-1.496;2023-05-19T12:38:25;7.75;;;4.70;;
73919;SDS011;62266;53.348;-1.496;2023-05-19T12:41:15;8.23;;;4.80;;
73919;SDS011;62266;53.348;-1.496;2023-05-19T12:44:11;7.57;;;4.45;;
73919;SDS011;62266;53.348;-1.496;2023-05-19T12:46:59;8.95;;;5.00;;
73919;SDS011;62266;53.348;-1.496;2023-05-19T12:52:49;7.40;;;4.30;;
73919;SDS011;62266;53.348;-1.496;2023-05-19T12:55:39;8.15;;;4.63;;
73919;SDS011;62266;53.348;-1.496;2023-05-19T12:58:25;8.63;;;4.18;;
73919;SDS011;62266;53.348;-1.496;2023-05-19T13:01:16;7.38;;;4.35;;
73919;SDS011;62266;53.348;-1.496;2023-05-19T13:04:00;8.00;;;4.83;;
73919;SDS011;62266;53.348;-1.496;2023-05-19T13:06:45;7.65;;;4.88;;
73919;SDS011;62266;53.348;-1.496;2023-05-19T13:09:32;6.60;;;4.45;;
73919;SDS011;62266;53.348;-1.496;2023-05-19T13:12:17;10.43;;;4.95;;
73919;SDS011;62266;53.348;-1.496;2023-05-19T13:15:03;5.57;;;4.53;;
73919;SDS011;62266;53.348;-1.496;2023-05-19T13:17:47;9.87;;;4.40;;
73919;SDS011;62266;53.348;-1.496;2023-05-19T13:20:31;6.93;;;4.50;;
73919;SDS011;62266;53.348;-1.496;2023-05-19T13:23:16;7.57;;;4.60;;
73919;SDS011;62266;53.348;-1.496;2023-05-19T13:26:01;6.90;;;4.70;;
73919;SDS011;62266;53.348;-1.496;2023-05-19T13:28:47;7.45;;;4.90;;
73919;SDS011;62266;53.348;-1.496;2023-05-19T13:31:31;7.20;;;4.63;;
73919;SDS011;62266;53.348;-1.496;2023-05-19T13:34:15;8.18;;;4.88;;
73919;SDS011;62266;53.348;-1.496;2023-05-19T13:37:00;9.85;;;5.20;;
73919;SDS011;62266;53.348;-1.496;2023-05-19T13:39:45;9.00;;;5.30;;
73919;SDS011;62266;53.348;-1.496;2023-05-19T13:42:30;6.72;;;5.68;;
73919;SDS011;62266;53.348;-1.496;2023-05-19T13:45:15;6.40;;;5.03;;
73919;SDS011;62266;53.348;-1.496;2023-05-19T13:48:00;11.30;;;5.40;;
73919;SDS011;62266;53.348;-1.496;2023-05-19T13:50:45;7.93;;;5.43;;
73919;SDS011;62266;53.348;-1.496;2023-05-19T13:53:29;7.00;;;5.40;;
73919;SDS011;62266;53.348;-1.496;2023-05-19T13:56:15;6.93;;;4.30;;
73919;SDS011;62266;53.348;-1.496;2023-05-19T13:58:59;5.43;;;3.97;;
73919;SDS011;62266;53.348;-1.496;2023-05-19T14:01:43;5.88;;;4.25;;
73919;SDS011;62266;53.348;-1.496;2023-05-19T14:04:28;7.45;;;4.47;;
73919;SDS011;62266;53.348;-1.496;2023-05-19T14:07:12;6.18;;;4.53;;
73919;SDS011;62266;53.348;-1.496;2023-05-19T14:09:56;5.57;;;4.45;;
73919;SDS011;62266;53.348;-1.496;2023-05-19T14:12:40;6.27;;;4.40;;
73919;SDS011;62266;53.348;-1.496;2023-05-19T14:15:25;8.27;;;4.60;;
73919;SDS011;62266;53.348;-1.496;2023-05-19T14:18:09;5.03;;;4.53;;
73919;SDS011;62266;53.348;-1.496;2023-05-19T14:20:53;6.25;;;4.15;;
73919;SDS011;62266;53.348;-1.496;2023-05-19T14:23:39;5.95;;;3.72;;
73919;SDS011;62266;53.348;-1.496;2023-05-19T14:26:23;5.63;;;3.77;;
73919;SDS011;62266;53.348;-1.496;2023-05-19T14:29:07;6.15;;;4.13;;
73919;SDS011;62266;53.348;-1.496;2023-05-19T14:31:51;5.90;;;4.38;;
73919;SDS011;62266;53.348;-1.496;2023-05-19T14:34:35;7.38;;;4.30;;
73919;SDS011;62266;53.348;-1.496;2023-05-19T14:37:19;4.75;;;3.60;;
73919;SDS011;62266;53.348;-1.496;2023-05-19T14:40:03;8.57;;;4.37;;
73919;SDS011;62266;53.348;-1.496;2023-05-19T14:42:47;5.85;;;3.75;;
73919;SDS011;62266;53.348;-1.496;2023-05-19T14:45:34;6.85;;;3.78;;
73919;SDS011;62266;53.348;-1.496;2023-05-19T14:48:19;5.97;;;3.55;;
73919;SDS011;62266;53.348;-1.496;2023-05-19T14:51:03;3.13;;;2.80;;
73919;SDS011;62266;53.348;-1.496;2023-05-19T14:53:47;3.80;;;2.47;;
73919;SDS011;62266;53.348;-1.496;2023-05-19T14:56:33;3.13;;;2.30;;
73919;SDS011;62266;53.348;-1.496;2023-05-19T14:59:16;4.47;;;2.10;;
73919;SDS011;62266;53.348;-1.496;2023-05-19T15:02:01;2.63;;;2.40;;
73919;SDS011;62266;53.348;-1.496;2023-05-19T15:04:45;2.85;;;2.25;;
73919;SDS011;62266;53.348;-1.496;2023-05-19T15:07:29;2.67;;;2.13;;
73919;SDS011;62266;53.348;-1.496;2023-05-19T15:10:14;2.65;;;2.08;;
73919;SDS011;62266;53.348;-1.496;2023-05-19T15:12:58;6.18;;;2.47;;
73919;SDS011;62266;53.348;-1.496;2023-05-19T15:15:44;2.65;;;1.55;;
73919;SDS011;62266;53.348;-1.496;2023-05-19T15:18:28;3.33;;;1.80;;
73919;SDS011;62266;53.348;-1.496;2023-05-19T15:21:13;2.00;;;1.73;;
73919;SDS011;62266;53.348;-1.496;2023-05-19T15:23:57;5.28;;;2.17;;
73919;SDS011;62266;53.348;-1.496;2023-05-19T15:26:42;3.28;;;2.00;;
73919;SDS011;62266;53.348;-1.496;2023-05-19T15:29:26;2.63;;;1.80;;
73919;SDS011;62266;53.348;-1.496;2023-05-19T15:32:11;4.28;;;1.83;;
73919;SDS011;62266;53.348;-1.496;2023-05-19T15:34:55;2.17;;;1.90;;
73919;SDS011;62266;53.348;-1.496;2023-05-19T15:37:40;2.97;;;2.00;;
73919;SDS011;62266;53.348;-1.496;2023-05-19T15:40:24;3.30;;;1.75;;
73919;SDS011;62266;53.348;-1.496;2023-05-19T15:43:09;2.00;;;1.52;;
73919;SDS011;62266;53.348;-1.496;2023-05-19T15:45:55;2.03;;;1.38;;
73919;SDS011;62266;53.348;-1.496;2023-05-19T15:48:39;2.70;;;1.80;;
73919;SDS011;62266;53.348;-1.496;2023-05-19T15:51:24;3.03;;;1.88;;
73919;SDS011;62266;53.348;-1.496;2023-05-19T15:54:08;3.00;;;2.10;;
73919;SDS011;62266;53.348;-1.496;2023-05-19T15:56:53;3.80;;;2.10;;
73919;SDS011;62266;53.348;-1.496;2023-05-19T15:59:37;3.15;;;2.30;;
73919;SDS011;62266;53.348;-1.496;2023-05-19T16:02:21;3.00;;;1.90;;
73919;SDS011;62266;53.348;-1.496;2023-05-19T16:05:06;2.88;;;1.90;;
73919;SDS011;62266;53.348;-1.496;2023-05-19T16:07:50;2.45;;;1.50;;
73919;SDS011;62266;53.348;-1.496;2023-05-19T16:10:36;2.60;;;1.60;;
73919;SDS011;62266;53.348;-1.496;2023-05-19T16:13:20;2.60;;;1.75;;
73919;SDS011;62266;53.348;-1.496;2023-05-19T16:16:04;3.03;;;1.67;;
73919;SDS011;62266;53.348;-1.496;2023-05-19T16:18:49;2.70;;;2.20;;
73919;SDS011;62266;53.348;-1.496;2023-05-19T16:21:38;4.28;;;2.30;;
73919;SDS011;62266;53.348;-1.496;2023-05-19T16:24:25;3.28;;;2.10;;
73919;SDS011;62266;53.348;-1.496;2023-05-19T16:27:09;4.47;;;2.40;;
73919;SDS011;62266;53.348;-1.496;2023-05-19T16:29:53;4.00;;;2.00;;
73919;SDS011;62266;53.348;-1.496;2023-05-19T16:32:38;2.40;;;1.90;;
73919;SDS011;62266;53.348;-1.496;2023-05-19T16:35:22;3.47;;;2.28;;
73919;SDS011;62266;53.348;-1.496;2023-05-19T16:38:06;4.00;;;2.10;;
73919;SDS011;62266;53.348;-1.496;2023-05-19T16:40:56;4.40;;;2.70;;
73919;SDS011;62266;53.348;-1.496;2023-05-19T16:43:44;4.03;;;2.43;;
73919;SDS011;62266;53.348;-1.496;2023-05-19T16:46:31;5.05;;;3.00;;
73919;SDS011;62266;53.348;-1.496;2023-05-19T16:49:32;10.30;;;4.50;;
73919;SDS011;62266;53.348;-1.496;2023-05-19T16:52:19;6.00;;;4.60;;
73919;SDS011;62266;53.348;-1.496;2023-05-19T16:55:09;8.25;;;5.00;;
73919;SDS011;62266;53.348;-1.496;2023-05-19T17:06:11;12.73;;;6.75;;
73919;SDS011;62266;53.348;-1.496;2023-05-19T17:08:55;10.38;;;7.47;;
73919;SDS011;62266;53.348;-1.496;2023-05-19T17:11:43;10.07;;;6.30;;
73919;SDS011;62266;53.348;-1.496;2023-05-19T17:14:30;9.70;;;7.18;;
73919;SDS011;62266;53.348;-1.496;2023-05-19T17:17:14;9.85;;;7.03;;
73919;SDS011;62266;53.348;-1.496;2023-05-19T17:20:02;10.18;;;6.93;;
73919;SDS011;62266;53.348;-1.496;2023-05-19T17:22:52;10.50;;;6.93;;
73919;SDS011;62266;53.348;-1.496;2023-05-19T17:25:39;11.70;;;7.23;;
73919;SDS011;62266;53.348;-1.496;2023-05-19T17:28:24;11.98;;;6.90;;
73919;SDS011;62266;53.348;-1.496;2023-05-19T17:31:12;10.57;;;7.05;;